createdAt,value
2023-04-01T00:01:28.125Z,0.75
2023-04-01T00:03:55.577Z,0.70
2023-04-01T00:06:22.522Z,0.75
2023-04-01T00:08:49.388Z,0.77
2023-04-01T00:11:16.887Z,0.80
2023-04-01T00:13:44.192Z,0.70
2023-04-01T00:16:21.106Z,0.80
2023-04-01T00:18:51.355Z,0.70
2023-04-01T00:21:18.991Z,0.70
2023-04-01T00:23:45.666Z,0.70
2023-04-01T00:26:13.278Z,0.70
2023-04-01T00:28:40.379Z,0.70
2023-04-01T00:31:08.728Z,0.75
2023-04-01T00:33:35.501Z,0.70
2023-04-01T00:36:15.455Z,0.60
2023-04-01T00:38:43.530Z,0.70
2023-04-01T00:41:15.396Z,0.70
2023-04-01T00:43:44.115Z,0.70
2023-04-01T00:46:11.415Z,0.80
2023-04-01T00:48:41.304Z,0.65
2023-04-01T00:51:11.144Z,0.70
2023-04-01T00:53:40.659Z,0.57
2023-04-01T00:56:10.573Z,0.70
2023-04-01T00:58:40.183Z,0.70
2023-04-01T01:01:07.475Z,0.80
2023-04-01T01:03:34.316Z,0.60
2023-04-01T01:06:09.316Z,0.70
2023-04-01T01:09:10.851Z,0.63
2023-04-01T01:11:45.246Z,0.70
2023-04-01T01:14:15.430Z,0.60
2023-04-01T01:16:46.156Z,0.80
2023-04-01T01:19:34.920Z,0.88
2023-04-01T01:22:07.419Z,0.70
2023-04-01T01:24:50.504Z,0.80
2023-04-01T01:27:18.885Z,0.68
2023-04-01T01:30:12.124Z,0.70
2023-04-01T01:33:01.158Z,0.68
2023-04-01T01:35:35.656Z,0.70
2023-04-01T01:38:18.070Z,0.88
2023-04-01T01:40:54.912Z,0.80
2023-04-01T01:43:33.883Z,0.70
2023-04-01T01:46:04.283Z,0.63
2023-04-01T01:48:33.480Z,0.70
2023-04-01T01:51:00.868Z,0.68
2023-04-01T01:53:27.532Z,0.63
2023-04-01T01:55:54.770Z,0.77
2023-04-01T01:58:28.708Z,0.70
2023-04-01T02:00:59.243Z,0.75
2023-04-01T02:03:28.689Z,0.60
2023-04-01T02:05:57.501Z,0.70
2023-04-01T02:08:27.954Z,0.63
2023-04-01T02:10:59.287Z,0.60
2023-04-01T02:16:08.532Z,0.70
2023-04-01T02:18:38.412Z,0.70
2023-04-01T02:21:07.105Z,0.68
2023-04-01T02:23:35.989Z,0.60
2023-04-01T02:26:05.095Z,0.65
2023-04-01T02:28:32.798Z,0.65
2023-04-01T02:31:01.275Z,0.60
2023-04-01T02:33:28.609Z,0.60
2023-04-01T02:35:55.246Z,0.60
2023-04-01T02:38:22.177Z,0.70
2023-04-01T02:40:51.937Z,0.50
2023-04-01T02:43:19.980Z,0.70
2023-04-01T02:45:46.695Z,0.70
2023-04-01T02:48:14.988Z,0.68
2023-04-01T02:50:41.748Z,0.57
2023-04-01T02:53:08.661Z,0.60
2023-04-01T02:55:35.704Z,0.60
2023-04-01T02:58:02.762Z,0.70
2023-04-01T03:00:30.662Z,0.60
2023-04-01T03:02:57.811Z,0.57
2023-04-01T03:05:24.958Z,0.70
2023-04-01T03:07:51.651Z,0.63
2023-04-01T03:10:18.798Z,0.60
2023-04-01T03:12:45.539Z,0.60
2023-04-01T03:15:15.238Z,0.60
2023-04-01T03:17:42.893Z,0.60
2023-04-01T03:20:11.762Z,0.50
2023-04-01T03:22:40.263Z,0.60
2023-04-01T03:25:09.769Z,0.60
2023-04-01T03:27:36.984Z,0.60
2023-04-01T03:30:05.081Z,0.60
2023-04-01T03:35:06.610Z,0.60
2023-04-01T03:37:33.329Z,0.70
2023-04-01T03:39:59.972Z,0.55
2023-04-01T03:42:26.689Z,0.55
2023-04-01T03:44:54.102Z,0.70
2023-04-01T03:47:20.875Z,0.50
2023-04-01T03:49:47.693Z,0.80
2023-04-01T03:52:14.741Z,0.68
2023-04-01T03:54:41.432Z,0.73
2023-04-01T03:57:08.250Z,0.70
2023-04-01T03:59:35.599Z,0.60
2023-04-01T04:02:04.221Z,0.70
2023-04-01T04:04:31.175Z,0.60
2023-04-01T04:06:58.013Z,0.80
2023-04-01T04:09:25.813Z,0.70
2023-04-01T04:11:52.455Z,0.70
2023-04-01T04:14:19.553Z,0.80
2023-04-01T04:16:47.426Z,1.00
2023-04-01T04:19:14.079Z,0.70
2023-04-01T04:21:42.054Z,0.70
2023-04-01T04:24:09.314Z,0.70
2023-04-01T04:26:55.987Z,0.60
2023-04-01T04:29:23.821Z,0.82
2023-04-01T04:31:51.259Z,0.85
2023-04-01T04:34:19.434Z,0.70
2023-04-01T04:36:46.203Z,0.50
2023-04-01T04:39:13.013Z,0.77
2023-04-01T04:41:42.512Z,0.50
2023-04-01T04:44:09.635Z,0.80
2023-04-01T04:46:38.263Z,0.70
2023-04-01T04:49:14.844Z,0.70
2023-04-01T04:51:41.827Z,0.60
2023-04-01T04:54:08.878Z,0.82
2023-04-01T04:57:01.412Z,0.70
2023-04-01T04:59:32.653Z,0.68
2023-04-01T05:02:19.703Z,0.70
2023-04-01T05:04:47.668Z,0.55
2023-04-01T05:07:14.951Z,0.70
2023-04-01T05:09:41.868Z,0.70
2023-04-01T05:12:08.507Z,1.00
2023-04-01T05:14:55.457Z,0.90
2023-04-01T05:17:22.129Z,0.60
2023-04-01T05:19:48.778Z,0.60
2023-04-01T05:22:15.554Z,0.80
2023-04-01T05:24:43.108Z,0.95
2023-04-01T05:27:09.763Z,0.70
2023-04-01T05:29:58.536Z,0.60
2023-04-01T05:32:54.548Z,0.80
2023-04-01T05:35:21.367Z,0.60
2023-04-01T05:37:48.162Z,0.73
2023-04-01T05:40:15.365Z,0.70
2023-04-01T05:42:42.046Z,0.90
2023-04-01T05:45:09.764Z,0.50
2023-04-01T05:48:02.485Z,0.90
2023-04-01T05:50:33.136Z,0.70
2023-04-01T05:53:00.484Z,0.68
2023-04-01T05:55:27.280Z,0.63
2023-04-01T05:57:53.965Z,0.60
2023-04-01T06:00:21.047Z,0.68
2023-04-01T06:02:48.858Z,0.68
2023-04-01T06:05:20.077Z,0.60
2023-04-01T06:07:47.435Z,0.68
2023-04-01T06:10:35.781Z,0.52
2023-04-01T06:13:54.740Z,0.73
2023-04-01T06:16:37.695Z,0.60
2023-04-01T06:19:16.538Z,0.60
2023-04-01T06:21:56.439Z,0.50
2023-04-01T06:25:00.860Z,0.60
2023-04-01T06:27:46.326Z,0.60
2023-04-01T06:30:41.000Z,0.50
2023-04-01T06:36:04.391Z,0.60
2023-04-01T06:38:34.341Z,0.50
2023-04-01T06:41:28.296Z,0.60
2023-04-01T06:44:21.330Z,0.52
2023-04-01T06:47:45.405Z,0.60
2023-04-01T06:50:57.583Z,0.60
2023-04-01T06:53:49.030Z,0.50
2023-04-01T06:56:37.848Z,0.65
2023-04-01T06:59:19.085Z,0.50
2023-04-01T07:01:55.837Z,0.40
2023-04-01T07:04:35.359Z,0.60
2023-04-01T07:07:11.543Z,0.65
2023-04-01T07:09:52.454Z,0.60
2023-04-01T07:12:51.243Z,0.70
2023-04-01T07:15:41.371Z,0.70
2023-04-01T07:18:15.554Z,0.60
2023-04-01T07:20:42.252Z,0.82
2023-04-01T07:23:26.454Z,0.93
2023-04-01T07:26:05.707Z,0.93
2023-04-01T07:28:56.090Z,0.90
2023-04-01T07:31:43.019Z,1.00
2023-04-01T07:34:32.110Z,0.80
2023-04-01T07:37:17.382Z,1.00
2023-04-01T07:40:09.285Z,1.50
2023-04-01T07:43:09.176Z,1.00
2023-04-01T07:45:51.472Z,1.20
2023-04-01T07:48:32.289Z,1.20
2023-04-01T07:51:04.745Z,0.85
2023-04-01T07:53:32.066Z,0.80
2023-04-01T07:56:21.298Z,1.15
2023-04-01T07:58:56.889Z,0.90
2023-04-01T08:02:04.972Z,0.88
2023-04-01T08:04:49.523Z,0.85
2023-04-01T08:07:19.491Z,1.00
2023-04-01T08:10:20.306Z,1.00
2023-04-01T08:13:42.210Z,0.80
2023-04-01T08:17:02.343Z,0.82
2023-04-01T08:20:03.321Z,0.90
2023-04-01T08:22:50.389Z,0.90
2023-04-01T08:25:29.353Z,1.00
2023-04-01T08:28:14.618Z,0.77
2023-04-01T08:30:44.377Z,0.82
2023-04-01T08:33:18.409Z,0.75
2023-04-01T08:35:58.678Z,0.90
2023-04-01T08:38:33.331Z,1.00
2023-04-01T08:41:01.412Z,0.90
2023-04-01T08:44:11.826Z,0.80
2023-04-01T08:47:20.298Z,0.90
2023-04-01T08:50:07.175Z,0.90
2023-04-01T08:53:14.970Z,0.70
2023-04-01T08:56:07.567Z,0.77
2023-04-01T08:58:52.737Z,0.75
2023-04-01T09:01:26.744Z,0.85
2023-04-01T09:04:14.091Z,0.80
2023-04-01T09:06:50.065Z,1.00
2023-04-01T09:09:23.046Z,0.60
2023-04-01T09:12:07.936Z,0.80
2023-04-01T09:14:50.417Z,0.80
2023-04-01T09:17:39.852Z,1.00
2023-04-01T09:20:28.126Z,0.75
2023-04-01T09:23:19.726Z,0.60
2023-04-01T09:26:01.685Z,0.73
2023-04-01T09:28:46.656Z,0.80
2023-04-01T09:34:06.122Z,0.70
2023-04-01T09:37:08.007Z,0.85
2023-04-01T09:39:55.002Z,0.70
2023-04-01T09:42:46.857Z,0.60
2023-04-01T09:46:12.711Z,0.68
2023-04-01T09:49:03.585Z,0.70
2023-04-01T09:51:59.697Z,0.80
2023-04-01T09:55:01.326Z,0.60
2023-04-01T09:57:51.272Z,0.68
2023-04-01T10:01:09.402Z,0.70
2023-04-01T10:06:47.528Z,0.80
2023-04-01T10:09:20.090Z,0.73
2023-04-01T10:12:29.263Z,0.60
2023-04-01T10:15:20.567Z,0.70
2023-04-01T10:18:06.238Z,0.65
2023-04-01T10:20:54.483Z,0.50
2023-04-01T10:23:22.108Z,0.50
2023-04-01T10:25:59.564Z,0.60
2023-04-01T10:28:45.822Z,0.45
2023-04-01T10:31:24.411Z,0.55
2023-04-01T10:34:01.574Z,0.35
2023-04-01T10:36:52.189Z,0.50
2023-04-01T10:39:56.501Z,0.65
2023-04-01T10:43:34.359Z,0.40
2023-04-01T10:46:37.908Z,0.43
2023-04-01T10:49:23.589Z,0.35
2023-04-01T10:52:12.342Z,0.40
2023-04-01T10:55:13.975Z,0.45
2023-04-01T10:58:04.704Z,0.43
2023-04-01T11:00:58.512Z,0.40
2023-04-01T11:04:04.317Z,0.60
2023-04-01T11:06:58.547Z,0.80
2023-04-01T11:09:46.485Z,0.80
2023-04-01T11:12:36.393Z,0.70
2023-04-01T11:15:32.789Z,0.50
2023-04-01T11:18:41.180Z,0.70
2023-04-01T11:21:28.986Z,0.68
2023-04-01T11:24:05.565Z,0.63
2023-04-01T11:26:47.214Z,0.60
2023-04-01T11:29:38.898Z,0.50
2023-04-01T11:32:54.243Z,0.43
2023-04-01T11:35:53.696Z,0.40
2023-04-01T11:38:36.535Z,0.40
2023-04-01T11:41:31.456Z,0.40
2023-04-01T11:44:17.262Z,0.40
2023-04-01T11:49:43.342Z,0.43
2023-04-01T11:52:31.369Z,0.30
2023-04-01T11:55:20.442Z,0.30
2023-04-01T11:58:14.948Z,0.45
2023-04-01T12:00:59.175Z,0.30
2023-04-01T12:03:32.264Z,0.40
2023-04-01T12:06:20.513Z,0.40
2023-04-01T12:08:59.536Z,0.30
2023-04-01T12:11:47.836Z,0.40
2023-04-01T12:14:38.405Z,0.32
2023-04-01T12:17:26.270Z,0.40
2023-04-01T12:19:56.001Z,0.30
2023-04-01T12:22:25.851Z,0.38
2023-04-01T12:25:26.053Z,0.22
2023-04-01T12:28:04.313Z,0.30
2023-04-01T12:30:48.029Z,0.30
2023-04-01T12:33:46.921Z,0.30
2023-04-01T12:36:31.783Z,0.30
2023-04-01T12:39:40.679Z,0.20
2023-04-01T12:42:49.048Z,0.15
2023-04-01T12:45:18.555Z,0.20
2023-04-01T12:48:15.613Z,0.30
2023-04-01T12:51:09.376Z,0.30
2023-04-01T12:53:40.448Z,0.30
2023-04-01T12:56:50.571Z,0.30
2023-04-01T12:59:33.630Z,0.32
2023-04-01T13:02:19.968Z,0.30
2023-04-01T13:04:55.119Z,0.20
2023-04-01T13:07:43.164Z,0.30
2023-04-01T13:10:37.533Z,0.30
2023-04-01T13:13:15.612Z,0.30
2023-04-01T13:15:53.164Z,0.47
2023-04-01T13:18:33.039Z,0.70
2023-04-01T13:21:17.857Z,1.00
2023-04-01T13:23:47.481Z,0.70
2023-04-01T13:26:49.682Z,0.75
2023-04-01T13:29:22.597Z,0.70
2023-04-01T13:31:58.241Z,0.90
2023-04-01T13:34:57.713Z,0.70
2023-04-01T13:37:46.314Z,0.50
2023-04-01T13:40:49.287Z,0.60
2023-04-01T13:44:04.356Z,0.70
2023-04-01T13:46:48.093Z,0.70
2023-04-01T13:49:21.166Z,0.80
2023-04-01T13:51:57.498Z,0.50
2023-04-01T13:54:27.217Z,0.68
2023-04-01T13:57:18.583Z,0.63
2023-04-01T14:00:03.088Z,0.52
2023-04-01T14:03:01.910Z,0.60
2023-04-01T14:05:46.331Z,0.50
2023-04-01T14:08:25.434Z,0.47
2023-04-01T14:11:07.219Z,0.50
2023-04-01T14:13:49.052Z,0.30
2023-04-01T14:16:27.122Z,0.55
2023-04-01T14:19:20.119Z,0.50
2023-04-01T14:22:14.253Z,0.50
2023-04-01T14:25:17.978Z,0.40
2023-04-01T14:27:53.584Z,0.40
2023-04-01T14:30:45.166Z,0.45
2023-04-01T14:33:32.758Z,0.40
2023-04-01T14:36:19.976Z,0.40
2023-04-01T14:38:52.512Z,0.30
2023-04-01T14:41:36.044Z,0.40
2023-04-01T14:44:39.882Z,0.50
2023-04-01T14:47:31.440Z,0.40
2023-04-01T14:50:18.879Z,0.20
2023-04-01T14:52:54.595Z,0.30
2023-04-01T14:55:28.770Z,0.30
2023-04-01T14:58:08.274Z,0.38
2023-04-01T15:01:03.150Z,0.20
2023-04-01T15:03:33.943Z,0.25
2023-04-01T15:06:25.906Z,0.40
2023-04-01T15:08:52.672Z,0.25
2023-04-01T15:11:25.530Z,0.30
2023-04-01T15:13:59.502Z,0.30
2023-04-01T15:16:26.533Z,0.38
2023-04-01T15:18:57.927Z,0.10
2023-04-01T15:21:42.887Z,0.40
2023-04-01T15:24:28.200Z,0.50
2023-04-01T15:27:10.295Z,0.70
2023-04-01T15:30:08.140Z,0.70
2023-04-01T15:33:05.380Z,0.80
2023-04-01T15:36:08.231Z,0.90
2023-04-01T15:38:41.301Z,0.70
2023-04-01T15:41:40.779Z,0.77
2023-04-01T15:44:45.807Z,1.10
2023-04-01T15:47:27.519Z,1.00
2023-04-01T15:50:01.250Z,1.13
2023-04-01T15:52:43.044Z,1.00
2023-04-01T15:55:28.850Z,1.08
2023-04-01T15:58:32.342Z,1.00
2023-04-01T16:01:23.384Z,1.08
2023-04-01T16:04:09.925Z,1.20
2023-04-01T16:06:55.159Z,1.20
2023-04-01T16:11:59.111Z,1.10
2023-04-01T16:14:46.146Z,1.02
2023-04-01T16:17:38.948Z,1.13
2023-04-01T16:20:23.755Z,1.13
2023-04-01T16:22:55.402Z,1.10
2023-04-01T16:25:40.388Z,1.08
2023-04-01T16:28:22.345Z,1.17
2023-04-01T16:31:11.369Z,0.90
2023-04-01T16:33:47.122Z,0.90
2023-04-01T16:37:13.867Z,0.80
2023-04-01T16:40:24.065Z,0.90
2023-04-01T16:43:22.869Z,0.80
2023-04-01T16:45:58.358Z,0.80
2023-04-01T16:48:53.768Z,0.65
2023-04-01T16:51:22.313Z,0.68
2023-04-01T16:54:17.897Z,0.73
2023-04-01T16:59:43.817Z,0.60
2023-04-01T17:02:14.936Z,0.70
2023-04-01T17:04:46.760Z,0.40
2023-04-01T17:07:39.988Z,0.52
2023-04-01T17:10:24.745Z,0.60
2023-04-01T17:13:12.455Z,0.50
2023-04-01T17:16:06.147Z,0.50
2023-04-01T17:18:38.887Z,0.50
2023-04-01T17:21:12.270Z,0.45
2023-04-01T17:23:52.129Z,0.50
2023-04-01T17:26:28.646Z,0.47
2023-04-01T17:29:07.590Z,0.50
2023-04-01T17:31:46.615Z,0.47
2023-04-01T17:34:19.198Z,0.40
2023-04-01T17:37:17.198Z,0.47
2023-04-01T17:39:43.871Z,0.40
2023-04-01T17:42:41.735Z,0.40
2023-04-01T17:45:26.995Z,0.50
2023-04-01T17:48:02.319Z,0.50
2023-04-01T17:50:51.238Z,0.55
2023-04-01T17:53:23.134Z,0.50
2023-04-01T17:56:02.095Z,0.40
2023-04-01T17:58:51.856Z,0.70
2023-04-01T18:01:24.762Z,0.57
2023-04-01T18:04:12.400Z,0.60
2023-04-01T18:06:57.833Z,0.50
2023-04-01T18:09:36.357Z,0.47
2023-04-01T18:12:16.450Z,0.45
2023-04-01T18:15:04.374Z,0.55
2023-04-01T18:17:54.622Z,0.50
2023-04-01T18:20:39.773Z,0.50
2023-04-01T18:24:01.597Z,0.40
2023-04-01T18:26:32.895Z,0.40
2023-04-01T18:29:13.532Z,0.40
2023-04-01T18:31:43.758Z,0.47
2023-04-01T18:34:16.435Z,0.40
2023-04-01T18:36:56.609Z,0.30
2023-04-01T18:39:31.625Z,0.50
2023-04-01T18:42:12.040Z,0.50
2023-04-01T18:44:49.428Z,0.50
2023-04-01T18:47:43.833Z,0.47
2023-04-01T18:50:24.553Z,0.40
2023-04-01T18:53:18.869Z,0.47
2023-04-01T18:55:54.195Z,0.30
2023-04-01T18:58:45.649Z,0.40
2023-04-01T19:01:17.472Z,0.35
2023-04-01T19:04:14.927Z,0.50
2023-04-01T19:06:53.628Z,0.40
2023-04-01T19:09:30.535Z,0.40
2023-04-01T19:12:00.485Z,0.35
2023-04-01T19:14:51.979Z,0.40
2023-04-01T19:17:21.871Z,0.60
2023-04-01T19:19:57.673Z,0.40
2023-04-01T19:23:02.014Z,0.40
2023-04-01T19:25:28.638Z,0.40
2023-04-01T19:28:22.592Z,0.40
2023-04-01T19:30:58.490Z,0.40
2023-04-01T19:33:25.119Z,0.40
2023-04-01T19:36:16.156Z,0.40
2023-04-01T19:38:59.486Z,0.35
2023-04-01T19:41:48.945Z,0.55
2023-04-01T19:44:28.116Z,0.50
2023-04-01T19:47:00.205Z,0.40
2023-04-01T19:49:45.227Z,0.30
2023-04-01T19:52:25.010Z,0.40
2023-04-01T19:55:36.860Z,0.30
2023-04-01T19:58:06.861Z,0.40
2023-04-01T20:00:44.654Z,0.40
2023-04-01T20:03:36.945Z,0.40
2023-04-01T20:06:37.906Z,0.30
2023-04-01T20:10:01.950Z,0.38
2023-04-01T20:12:57.683Z,0.40
2023-04-01T20:15:35.788Z,0.38
2023-04-01T20:18:35.393Z,0.40
2023-04-01T20:21:06.763Z,0.40
2023-04-01T20:23:41.351Z,0.40
2023-04-01T20:26:10.602Z,0.38
2023-04-01T20:28:58.957Z,0.40
2023-04-01T20:31:30.217Z,0.45
2023-04-01T20:34:30.204Z,0.40
2023-04-01T20:37:30.917Z,0.40
2023-04-01T20:40:06.649Z,1.20
2023-04-01T20:42:46.459Z,0.60
2023-04-01T20:45:39.449Z,0.40
2023-04-01T20:48:20.162Z,0.95
2023-04-01T20:50:56.104Z,0.80
2023-04-01T20:53:49.449Z,0.73
2023-04-01T20:56:29.379Z,0.75
2023-04-01T20:59:20.877Z,0.50
2023-04-01T21:02:06.474Z,0.47
2023-04-01T21:05:05.533Z,0.40
2023-04-01T21:07:43.648Z,0.40
2023-04-01T21:10:23.494Z,0.40
2023-04-01T21:13:13.265Z,0.40
2023-04-01T21:15:57.862Z,0.45
2023-04-01T21:18:39.696Z,0.40
2023-04-01T21:21:06.375Z,0.47
2023-04-01T21:23:32.992Z,0.30
2023-04-01T21:26:12.309Z,0.30
2023-04-01T21:28:44.971Z,0.40
2023-04-01T21:31:24.344Z,0.40
2023-04-01T21:34:29.584Z,0.30
2023-04-01T21:37:13.054Z,0.50
2023-04-01T21:39:42.706Z,0.40
2023-04-01T21:42:15.107Z,0.35
2023-04-01T21:44:53.047Z,0.30
2023-04-01T21:47:41.765Z,0.40
2023-04-01T21:50:24.885Z,0.30
2023-04-01T21:52:57.535Z,0.40
2023-04-01T21:55:36.609Z,0.40
2023-04-01T21:58:41.746Z,0.40
2023-04-01T22:01:31.773Z,0.40
2023-04-01T22:04:10.734Z,0.30
2023-04-01T22:06:59.198Z,0.40
2023-04-01T22:09:30.670Z,0.50
2023-04-01T22:12:19.230Z,0.40
2023-04-01T22:14:52.376Z,0.30
2023-04-01T22:17:56.108Z,0.45
2023-04-01T22:20:29.086Z,0.30
2023-04-01T22:23:20.638Z,0.30
2023-04-01T22:25:58.190Z,0.50
2023-04-01T22:28:53.798Z,0.40
2023-04-01T22:31:34.851Z,0.45
2023-04-01T22:34:28.382Z,0.40
2023-04-01T22:37:26.140Z,0.30
2023-04-01T22:40:08.828Z,0.52
2023-04-01T22:42:35.566Z,0.40
2023-04-01T22:45:23.829Z,0.30
2023-04-01T22:48:11.196Z,0.40
2023-04-01T22:50:46.756Z,0.40
2023-04-01T22:53:29.107Z,0.20
2023-04-01T22:55:58.568Z,0.30
2023-04-01T22:58:34.184Z,0.40
2023-04-01T23:01:04.764Z,0.40
2023-04-01T23:03:33.847Z,0.30
2023-04-01T23:06:02.989Z,0.40
2023-04-01T23:08:44.901Z,0.30
2023-04-01T23:11:18.199Z,0.40
2023-04-01T23:13:57.248Z,0.40
2023-04-01T23:16:30.408Z,0.32
2023-04-01T23:19:02.672Z,0.30
2023-04-01T23:21:46.287Z,0.25
2023-04-01T23:24:36.128Z,0.30
2023-04-01T23:27:07.338Z,0.30
2023-04-01T23:29:36.963Z,0.22
2023-04-01T23:32:15.648Z,0.30
2023-04-01T23:34:48.215Z,0.30
2023-04-01T23:37:17.796Z,0.32
2023-04-01T23:39:50.674Z,0.30
2023-04-01T23:42:27.684Z,0.30
2023-04-01T23:44:59.520Z,0.30
2023-04-01T23:47:29.255Z,0.30
2023-04-01T23:50:04.415Z,0.30
2023-04-01T23:52:36.854Z,0.32
2023-04-01T23:55:12.517Z,0.40
2023-04-01T23:57:39.675Z,0.40
